sensor_id;sensor_type;location;lat;lon;timestamp;P1;durP1;ratioP1;P2;durP2;ratioP2
56477;SDS011;42382;53.210;5.772;2022-09-09T00:06:45;8.45;;;5.68;;
56477;SDS011;42382;53.210;5.772;2022-09-09T00:09:17;9.20;;;6.18;;
56477;SDS011;42382;53.210;5.772;2022-09-09T00:14:35;13.00;;;6.53;;
56477;SDS011;42382;53.210;5.772;2022-09-09T00:17:14;9.80;;;5.95;;
56477;SDS011;42382;53.210;5.772;2022-09-09T00:22:30;13.40;;;6.47;;
56477;SDS011;42382;53.210;5.772;2022-09-09T00:25:10;10.85;;;5.82;;
56477;SDS011;42382;53.210;5.772;2022-09-09T00:27:44;14.07;;;6.28;;
56477;SDS011;42382;53.210;5.772;2022-09-09T00:32:49;7.72;;;6.00;;
56477;SDS011;42382;53.210;5.772;2022-09-09T00:38:05;11.00;;;7.00;;
56477;SDS011;42382;53.210;5.772;2022-09-09T00:43:33;9.15;;;6.13;;
56477;SDS011;42382;53.210;5.772;2022-09-09T00:49:04;9.13;;;6.35;;
56477;SDS011;42382;53.210;5.772;2022-09-09T00:54:44;11.77;;;6.43;;
56477;SDS011;42382;53.210;5.772;2022-09-09T00:57:34;10.05;;;6.22;;
56477;SDS011;42382;53.210;5.772;2022-09-09T01:02:41;12.68;;;8.20;;
56477;SDS011;42382;53.210;5.772;2022-09-09T01:05:27;11.40;;;6.82;;
56477;SDS011;42382;53.210;5.772;2022-09-09T01:07:59;11.45;;;6.50;;
56477;SDS011;42382;53.210;5.772;2022-09-09T01:13:22;10.98;;;7.00;;
56477;SDS011;42382;53.210;5.772;2022-09-09T01:15:50;9.98;;;7.15;;
56477;SDS011;42382;53.210;5.772;2022-09-09T01:18:19;14.93;;;7.32;;
56477;SDS011;42382;53.210;5.772;2022-09-09T01:26:18;16.00;;;7.60;;
56477;SDS011;42382;53.210;5.772;2022-09-09T01:28:48;12.85;;;7.72;;
56477;SDS011;42382;53.210;5.772;2022-09-09T01:31:19;12.00;;;7.00;;
56477;SDS011;42382;53.210;5.772;2022-09-09T01:33:48;11.68;;;7.20;;
56477;SDS011;42382;53.210;5.772;2022-09-09T01:39:06;9.20;;;6.85;;
56477;SDS011;42382;53.210;5.772;2022-09-09T01:41:31;10.43;;;6.95;;
56477;SDS011;42382;53.210;5.772;2022-09-09T01:43:57;9.35;;;6.88;;
56477;SDS011;42382;53.210;5.772;2022-09-09T01:46:23;13.57;;;7.57;;
56477;SDS011;42382;53.210;5.772;2022-09-09T01:48:50;10.07;;;8.07;;
56477;SDS011;42382;53.210;5.772;2022-09-09T01:51:17;10.07;;;7.22;;
56477;SDS011;42382;53.210;5.772;2022-09-09T01:53:43;11.90;;;7.97;;
56477;SDS011;42382;53.210;5.772;2022-09-09T01:56:17;14.55;;;7.88;;
56477;SDS011;42382;53.210;5.772;2022-09-09T02:07:09;11.13;;;7.18;;
56477;SDS011;42382;53.210;5.772;2022-09-09T02:10:02;13.05;;;7.90;;
56477;SDS011;42382;53.210;5.772;2022-09-09T02:12:40;12.93;;;7.75;;
56477;SDS011;42382;53.210;5.772;2022-09-09T02:15:12;10.55;;;7.60;;
56477;SDS011;42382;53.210;5.772;2022-09-09T02:17:49;13.85;;;8.30;;
56477;SDS011;42382;53.210;5.772;2022-09-09T02:20:17;9.48;;;7.03;;
56477;SDS011;42382;53.210;5.772;2022-09-09T02:22:44;12.18;;;7.80;;
56477;SDS011;42382;53.210;5.772;2022-09-09T02:25:14;16.13;;;8.63;;
56477;SDS011;42382;53.210;5.772;2022-09-09T02:27:43;11.20;;;8.05;;
56477;SDS011;42382;53.210;5.772;2022-09-09T02:30:10;8.82;;;7.88;;
56477;SDS011;42382;53.210;5.772;2022-09-09T02:32:37;8.35;;;7.32;;
56477;SDS011;42382;53.210;5.772;2022-09-09T02:35:06;12.93;;;7.18;;
56477;SDS011;42382;53.210;5.772;2022-09-09T02:37:45;10.70;;;7.45;;
56477;SDS011;42382;53.210;5.772;2022-09-09T02:40:12;15.90;;;8.52;;
56477;SDS011;42382;53.210;5.772;2022-09-09T02:42:43;9.07;;;7.70;;
56477;SDS011;42382;53.210;5.772;2022-09-09T02:45:11;10.13;;;8.60;;
56477;SDS011;42382;53.210;5.772;2022-09-09T02:50:33;11.43;;;8.00;;
56477;SDS011;42382;53.210;5.772;2022-09-09T02:58:14;11.15;;;8.63;;
56477;SDS011;42382;53.210;5.772;2022-09-09T03:00:47;13.88;;;8.57;;
56477;SDS011;42382;53.210;5.772;2022-09-09T03:03:15;13.45;;;8.15;;
56477;SDS011;42382;53.210;5.772;2022-09-09T03:05:42;17.75;;;9.18;;
56477;SDS011;42382;53.210;5.772;2022-09-09T03:08:09;11.82;;;8.57;;
56477;SDS011;42382;53.210;5.772;2022-09-09T03:10:35;13.02;;;9.07;;
56477;SDS011;42382;53.210;5.772;2022-09-09T03:13:02;12.57;;;8.88;;
56477;SDS011;42382;53.210;5.772;2022-09-09T03:15:29;16.50;;;8.45;;
56477;SDS011;42382;53.210;5.772;2022-09-09T03:17:56;10.13;;;8.10;;
56477;SDS011;42382;53.210;5.772;2022-09-09T03:20:23;12.32;;;9.02;;
56477;SDS011;42382;53.210;5.772;2022-09-09T03:22:50;13.27;;;8.63;;
56477;SDS011;42382;53.210;5.772;2022-09-09T03:25:20;14.77;;;8.55;;
56477;SDS011;42382;53.210;5.772;2022-09-09T03:27:48;12.38;;;8.75;;
56477;SDS011;42382;53.210;5.772;2022-09-09T03:30:15;12.05;;;7.72;;
56477;SDS011;42382;53.210;5.772;2022-09-09T03:32:40;12.40;;;8.43;;
56477;SDS011;42382;53.210;5.772;2022-09-09T03:35:06;11.70;;;8.32;;
56477;SDS011;42382;53.210;5.772;2022-09-09T03:37:32;12.18;;;7.63;;
56477;SDS011;42382;53.210;5.772;2022-09-09T03:39:58;12.73;;;7.68;;
56477;SDS011;42382;53.210;5.772;2022-09-09T03:42:24;12.63;;;8.38;;
56477;SDS011;42382;53.210;5.772;2022-09-09T03:44:50;12.23;;;7.95;;
56477;SDS011;42382;53.210;5.772;2022-09-09T03:47:17;12.07;;;7.95;;
56477;SDS011;42382;53.210;5.772;2022-09-09T03:49:43;11.48;;;7.95;;
56477;SDS011;42382;53.210;5.772;2022-09-09T03:52:10;10.98;;;7.80;;
56477;SDS011;42382;53.210;5.772;2022-09-09T03:54:35;7.95;;;7.15;;
56477;SDS011;42382;53.210;5.772;2022-09-09T03:57:01;9.95;;;7.18;;
56477;SDS011;42382;53.210;5.772;2022-09-09T03:59:27;8.45;;;6.57;;
56477;SDS011;42382;53.210;5.772;2022-09-09T04:01:53;9.98;;;6.70;;
56477;SDS011;42382;53.210;5.772;2022-09-09T04:04:19;9.50;;;7.13;;
56477;SDS011;42382;53.210;5.772;2022-09-09T04:06:45;9.20;;;6.95;;
56477;SDS011;42382;53.210;5.772;2022-09-09T04:09:13;9.75;;;6.93;;
56477;SDS011;42382;53.210;5.772;2022-09-09T04:11:39;7.05;;;6.32;;
56477;SDS011;42382;53.210;5.772;2022-09-09T04:14:04;9.43;;;6.78;;
56477;SDS011;42382;53.210;5.772;2022-09-09T04:16:31;9.40;;;6.70;;
56477;SDS011;42382;53.210;5.772;2022-09-09T04:18:57;10.88;;;6.47;;
56477;SDS011;42382;53.210;5.772;2022-09-09T04:21:24;9.68;;;5.88;;
56477;SDS011;42382;53.210;5.772;2022-09-09T04:23:50;8.30;;;5.78;;
56477;SDS011;42382;53.210;5.772;2022-09-09T04:26:16;7.22;;;5.97;;
56477;SDS011;42382;53.210;5.772;2022-09-09T04:28:42;10.18;;;6.72;;
56477;SDS011;42382;53.210;5.772;2022-09-09T04:31:09;10.38;;;6.60;;
56477;SDS011;42382;53.210;5.772;2022-09-09T04:33:46;8.18;;;6.10;;
56477;SDS011;42382;53.210;5.772;2022-09-09T04:36:12;8.48;;;5.55;;
56477;SDS011;42382;53.210;5.772;2022-09-09T04:38:38;8.40;;;5.82;;
56477;SDS011;42382;53.210;5.772;2022-09-09T04:41:04;8.65;;;6.32;;
56477;SDS011;42382;53.210;5.772;2022-09-09T04:43:30;8.73;;;6.35;;
56477;SDS011;42382;53.210;5.772;2022-09-09T04:45:56;9.18;;;6.07;;
56477;SDS011;42382;53.210;5.772;2022-09-09T04:48:24;11.02;;;5.80;;
56477;SDS011;42382;53.210;5.772;2022-09-09T04:51:00;10.35;;;5.60;;
56477;SDS011;42382;53.210;5.772;2022-09-09T04:53:28;11.88;;;6.75;;
56477;SDS011;42382;53.210;5.772;2022-09-09T04:56:01;12.45;;;5.82;;
56477;SDS011;42382;53.210;5.772;2022-09-09T04:58:28;11.88;;;6.18;;
56477;SDS011;42382;53.210;5.772;2022-09-09T05:00:54;8.95;;;6.47;;
56477;SDS011;42382;53.210;5.772;2022-09-09T05:03:19;11.15;;;5.95;;
56477;SDS011;42382;53.210;5.772;2022-09-09T05:05:45;10.18;;;6.03;;
56477;SDS011;42382;53.210;5.772;2022-09-09T05:08:10;12.85;;;6.22;;
56477;SDS011;42382;53.210;5.772;2022-09-09T05:10:37;8.63;;;5.90;;
56477;SDS011;42382;53.210;5.772;2022-09-09T05:13:03;9.70;;;6.22;;
56477;SDS011;42382;53.210;5.772;2022-09-09T05:15:30;11.75;;;5.75;;
56477;SDS011;42382;53.210;5.772;2022-09-09T05:17:57;11.32;;;7.00;;
56477;SDS011;42382;53.210;5.772;2022-09-09T05:20:25;11.68;;;6.50;;
56477;SDS011;42382;53.210;5.772;2022-09-09T05:22:54;9.63;;;6.10;;
56477;SDS011;42382;53.210;5.772;2022-09-09T05:25:21;11.27;;;6.45;;
56477;SDS011;42382;53.210;5.772;2022-09-09T05:27:47;10.57;;;6.15;;
56477;SDS011;42382;53.210;5.772;2022-09-09T05:30:14;10.02;;;6.28;;
56477;SDS011;42382;53.210;5.772;2022-09-09T05:32:40;9.13;;;6.97;;
56477;SDS011;42382;53.210;5.772;2022-09-09T05:35:06;9.05;;;5.50;;
56477;SDS011;42382;53.210;5.772;2022-09-09T05:37:31;10.63;;;6.28;;
56477;SDS011;42382;53.210;5.772;2022-09-09T05:39:57;10.88;;;6.43;;
56477;SDS011;42382;53.210;5.772;2022-09-09T05:42:23;9.48;;;5.85;;
56477;SDS011;42382;53.210;5.772;2022-09-09T05:44:48;9.05;;;6.55;;
56477;SDS011;42382;53.210;5.772;2022-09-09T05:47:15;8.27;;;6.40;;
56477;SDS011;42382;53.210;5.772;2022-09-09T05:49:42;11.85;;;7.43;;
56477;SDS011;42382;53.210;5.772;2022-09-09T05:52:07;12.32;;;7.85;;
56477;SDS011;42382;53.210;5.772;2022-09-09T05:54:34;11.80;;;7.55;;
56477;SDS011;42382;53.210;5.772;2022-09-09T05:57:00;12.18;;;8.50;;
56477;SDS011;42382;53.210;5.772;2022-09-09T05:59:25;11.68;;;7.38;;
56477;SDS011;42382;53.210;5.772;2022-09-09T06:01:51;11.20;;;8.00;;
56477;SDS011;42382;53.210;5.772;2022-09-09T06:04:17;11.50;;;8.02;;
56477;SDS011;42382;53.210;5.772;2022-09-09T06:06:42;11.95;;;7.68;;
56477;SDS011;42382;53.210;5.772;2022-09-09T06:09:09;12.70;;;9.00;;
56477;SDS011;42382;53.210;5.772;2022-09-09T06:11:36;14.10;;;8.50;;
56477;SDS011;42382;53.210;5.772;2022-09-09T06:14:03;14.82;;;10.00;;
56477;SDS011;42382;53.210;5.772;2022-09-09T06:16:29;12.13;;;8.82;;
56477;SDS011;42382;53.210;5.772;2022-09-09T06:18:57;13.38;;;8.90;;
56477;SDS011;42382;53.210;5.772;2022-09-09T06:21:24;11.45;;;8.93;;
56477;SDS011;42382;53.210;5.772;2022-09-09T06:23:55;18.25;;;9.52;;
56477;SDS011;42382;53.210;5.772;2022-09-09T06:26:25;14.95;;;9.32;;
56477;SDS011;42382;53.210;5.772;2022-09-09T06:28:53;12.23;;;9.73;;
56477;SDS011;42382;53.210;5.772;2022-09-09T06:31:21;15.07;;;9.10;;
56477;SDS011;42382;53.210;5.772;2022-09-09T06:33:50;11.70;;;8.57;;
56477;SDS011;42382;53.210;5.772;2022-09-09T06:36:21;10.70;;;8.25;;
56477;SDS011;42382;53.210;5.772;2022-09-09T06:38:50;13.13;;;8.48;;
56477;SDS011;42382;53.210;5.772;2022-09-09T06:41:17;10.13;;;8.50;;
56477;SDS011;42382;53.210;5.772;2022-09-09T06:43:44;10.27;;;8.00;;
56477;SDS011;42382;53.210;5.772;2022-09-09T06:46:15;10.90;;;7.45;;
56477;SDS011;42382;53.210;5.772;2022-09-09T06:48:42;12.23;;;7.43;;
56477;SDS011;42382;53.210;5.772;2022-09-09T06:53:37;11.15;;;7.28;;
56477;SDS011;42382;53.210;5.772;2022-09-09T06:58:44;11.40;;;7.88;;
56477;SDS011;42382;53.210;5.772;2022-09-09T07:01:11;8.73;;;7.22;;
56477;SDS011;42382;53.210;5.772;2022-09-09T07:03:39;10.02;;;7.13;;
56477;SDS011;42382;53.210;5.772;2022-09-09T07:06:06;10.82;;;7.50;;
56477;SDS011;42382;53.210;5.772;2022-09-09T07:08:32;9.52;;;7.38;;
56477;SDS011;42382;53.210;5.772;2022-09-09T07:11:03;11.00;;;6.65;;
56477;SDS011;42382;53.210;5.772;2022-09-09T07:13:32;10.05;;;6.80;;
56477;SDS011;42382;53.210;5.772;2022-09-09T07:16:06;9.70;;;6.88;;
56477;SDS011;42382;53.210;5.772;2022-09-09T07:18:33;10.88;;;7.47;;
56477;SDS011;42382;53.210;5.772;2022-09-09T07:21:00;8.55;;;6.25;;
56477;SDS011;42382;53.210;5.772;2022-09-09T07:23:27;8.05;;;6.18;;
56477;SDS011;42382;53.210;5.772;2022-09-09T07:25:53;9.23;;;7.05;;
56477;SDS011;42382;53.210;5.772;2022-09-09T07:28:21;9.77;;;6.82;;
56477;SDS011;42382;53.210;5.772;2022-09-09T07:30:55;11.75;;;6.47;;
56477;SDS011;42382;53.210;5.772;2022-09-09T07:33:22;8.75;;;5.93;;
56477;SDS011;42382;53.210;5.772;2022-09-09T07:35:48;9.73;;;5.47;;
56477;SDS011;42382;53.210;5.772;2022-09-09T07:38:14;8.52;;;5.80;;
56477;SDS011;42382;53.210;5.772;2022-09-09T07:40:40;9.05;;;5.40;;
56477;SDS011;42382;53.210;5.772;2022-09-09T07:43:06;9.90;;;5.95;;
56477;SDS011;42382;53.210;5.772;2022-09-09T07:45:32;8.48;;;5.35;;
56477;SDS011;42382;53.210;5.772;2022-09-09T07:47:59;7.32;;;5.18;;
56477;SDS011;42382;53.210;5.772;2022-09-09T07:50:25;9.13;;;5.38;;
56477;SDS011;42382;53.210;5.772;2022-09-09T07:52:51;6.78;;;5.03;;
56477;SDS011;42382;53.210;5.772;2022-09-09T07:55:18;6.97;;;5.00;;
56477;SDS011;42382;53.210;5.772;2022-09-09T07:57:50;7.80;;;5.05;;
56477;SDS011;42382;53.210;5.772;2022-09-09T08:00:16;7.63;;;4.50;;
56477;SDS011;42382;53.210;5.772;2022-09-09T08:02:44;7.60;;;5.05;;
56477;SDS011;42382;53.210;5.772;2022-09-09T08:05:09;7.75;;;4.90;;
56477;SDS011;42382;53.210;5.772;2022-09-09T08:07:35;8.70;;;5.10;;
56477;SDS011;42382;53.210;5.772;2022-09-09T08:10:01;6.88;;;4.80;;
56477;SDS011;42382;53.210;5.772;2022-09-09T08:12:28;9.95;;;4.57;;
56477;SDS011;42382;53.210;5.772;2022-09-09T08:14:54;7.68;;;4.20;;
56477;SDS011;42382;53.210;5.772;2022-09-09T08:17:19;8.00;;;4.88;;
56477;SDS011;42382;53.210;5.772;2022-09-09T08:19:45;5.72;;;3.90;;
56477;SDS011;42382;53.210;5.772;2022-09-09T08:22:10;6.88;;;3.58;;
56477;SDS011;42382;53.210;5.772;2022-09-09T08:24:36;7.90;;;4.00;;
56477;SDS011;42382;53.210;5.772;2022-09-09T08:27:02;8.77;;;3.92;;
56477;SDS011;42382;53.210;5.772;2022-09-09T08:29:27;7.60;;;3.70;;
56477;SDS011;42382;53.210;5.772;2022-09-09T08:31:56;7.05;;;3.88;;
56477;SDS011;42382;53.210;5.772;2022-09-09T08:34:24;5.10;;;3.20;;
56477;SDS011;42382;53.210;5.772;2022-09-09T08:36:52;5.90;;;3.92;;
56477;SDS011;42382;53.210;5.772;2022-09-09T08:39:19;6.93;;;3.78;;
56477;SDS011;42382;53.210;5.772;2022-09-09T08:41:57;6.40;;;3.42;;
56477;SDS011;42382;53.210;5.772;2022-09-09T08:50:25;8.57;;;3.35;;
56477;SDS011;42382;53.210;5.772;2022-09-09T08:53:04;9.15;;;2.83;;
56477;SDS011;42382;53.210;5.772;2022-09-09T08:55:47;7.60;;;2.72;;
56477;SDS011;42382;53.210;5.772;2022-09-09T08:58:30;6.00;;;2.53;;
56477;SDS011;42382;53.210;5.772;2022-09-09T09:04:03;6.15;;;2.53;;
56477;SDS011;42382;53.210;5.772;2022-09-09T09:06:48;11.98;;;2.72;;
56477;SDS011;42382;53.210;5.772;2022-09-09T09:15:11;6.78;;;2.53;;
56477;SDS011;42382;53.210;5.772;2022-09-09T09:17:44;9.95;;;2.45;;
56477;SDS011;42382;53.210;5.772;2022-09-09T09:20:13;9.55;;;2.03;;
56477;SDS011;42382;53.210;5.772;2022-09-09T09:22:47;6.85;;;2.17;;
56477;SDS011;42382;53.210;5.772;2022-09-09T09:25:19;4.30;;;2.35;;
56477;SDS011;42382;53.210;5.772;2022-09-09T09:30:29;7.63;;;2.55;;
56477;SDS011;42382;53.210;5.772;2022-09-09T09:35:52;5.40;;;2.65;;
56477;SDS011;42382;53.210;5.772;2022-09-09T09:38:25;7.47;;;2.28;;
56477;SDS011;42382;53.210;5.772;2022-09-09T09:40:53;6.70;;;2.38;;
56477;SDS011;42382;53.210;5.772;2022-09-09T09:46:04;7.70;;;1.83;;
56477;SDS011;42382;53.210;5.772;2022-09-09T09:48:42;8.50;;;1.75;;
56477;SDS011;42382;53.210;5.772;2022-09-09T09:51:09;6.60;;;1.70;;
56477;SDS011;42382;53.210;5.772;2022-09-09T09:53:38;4.32;;;1.20;;
56477;SDS011;42382;53.210;5.772;2022-09-09T09:56:13;5.20;;;1.10;;
56477;SDS011;42382;53.210;5.772;2022-09-09T10:01:20;7.28;;;1.80;;
56477;SDS011;42382;53.210;5.772;2022-09-09T10:03:52;6.95;;;0.82;;
56477;SDS011;42382;53.210;5.772;2022-09-09T10:06:33;6.35;;;1.55;;
56477;SDS011;42382;53.210;5.772;2022-09-09T10:09:00;5.15;;;0.95;;
56477;SDS011;42382;53.210;5.772;2022-09-09T10:16:59;4.63;;;0.77;;
56477;SDS011;42382;53.210;5.772;2022-09-09T10:19:34;7.68;;;1.15;;
56477;SDS011;42382;53.210;5.772;2022-09-09T10:36:13;6.97;;;1.00;;
56477;SDS011;42382;53.210;5.772;2022-09-09T10:39:04;2.83;;;0.70;;
56477;SDS011;42382;53.210;5.772;2022-09-09T10:52:34;5.25;;;0.82;;
56477;SDS011;42382;53.210;5.772;2022-09-09T10:55:14;5.40;;;0.95;;
56477;SDS011;42382;53.210;5.772;2022-09-09T10:57:47;5.10;;;1.02;;
56477;SDS011;42382;53.210;5.772;2022-09-09T11:00:22;5.30;;;0.80;;
56477;SDS011;42382;53.210;5.772;2022-09-09T11:02:56;8.50;;;0.80;;
56477;SDS011;42382;53.210;5.772;2022-09-09T11:13:21;6.85;;;0.70;;
56477;SDS011;42382;53.210;5.772;2022-09-09T11:16:00;3.83;;;0.68;;
56477;SDS011;42382;53.210;5.772;2022-09-09T11:18:37;3.95;;;0.60;;
56477;SDS011;42382;53.210;5.772;2022-09-09T11:21:07;7.20;;;0.50;;
56477;SDS011;42382;53.210;5.772;2022-09-09T11:23:57;7.63;;;0.68;;
56477;SDS011;42382;53.210;5.772;2022-09-09T11:26:35;8.45;;;0.77;;
56477;SDS011;42382;53.210;5.772;2022-09-09T11:40:25;5.07;;;0.77;;
56477;SDS011;42382;53.210;5.772;2022-09-09T11:45:34;4.35;;;0.68;;
56477;SDS011;42382;53.210;5.772;2022-09-09T11:48:02;5.07;;;0.70;;
56477;SDS011;42382;53.210;5.772;2022-09-09T11:50:30;3.38;;;0.30;;
56477;SDS011;42382;53.210;5.772;2022-09-09T11:53:14;5.38;;;0.70;;
56477;SDS011;42382;53.210;5.772;2022-09-09T11:55:46;6.03;;;0.60;;
56477;SDS011;42382;53.210;5.772;2022-09-09T12:00:47;5.10;;;0.80;;
56477;SDS011;42382;53.210;5.772;2022-09-09T12:06:24;5.55;;;0.60;;
56477;SDS011;42382;53.210;5.772;2022-09-09T12:08:58;3.00;;;0.40;;
56477;SDS011;42382;53.210;5.772;2022-09-09T12:12:33;3.53;;;0.52;;
56477;SDS011;42382;53.210;5.772;2022-09-09T12:17:26;5.55;;;0.90;;
56477;SDS011;42382;53.210;5.772;2022-09-09T12:20:00;3.63;;;0.90;;
56477;SDS011;42382;53.210;5.772;2022-09-09T12:22:41;5.07;;;0.77;;
56477;SDS011;42382;53.210;5.772;2022-09-09T12:33:39;5.85;;;1.00;;
56477;SDS011;42382;53.210;5.772;2022-09-09T12:36:11;5.70;;;0.60;;
56477;SDS011;42382;53.210;5.772;2022-09-09T12:38:44;6.80;;;1.20;;
56477;SDS011;42382;53.210;5.772;2022-09-09T12:41:28;8.05;;;1.17;;
56477;SDS011;42382;53.210;5.772;2022-09-09T12:44:08;5.82;;;0.95;;
56477;SDS011;42382;53.210;5.772;2022-09-09T12:46:41;16.23;;;1.15;;
56477;SDS011;42382;53.210;5.772;2022-09-09T12:52:00;3.45;;;0.47;;
56477;SDS011;42382;53.210;5.772;2022-09-09T12:54:28;3.80;;;0.50;;
56477;SDS011;42382;53.210;5.772;2022-09-09T12:56:54;4.90;;;0.68;;
56477;SDS011;42382;53.210;5.772;2022-09-09T12:59:24;5.68;;;0.65;;
56477;SDS011;42382;53.210;5.772;2022-09-09T13:01:55;4.57;;;0.73;;
56477;SDS011;42382;53.210;5.772;2022-09-09T13:04:22;3.58;;;0.30;;
56477;SDS011;42382;53.210;5.772;2022-09-09T13:06:47;6.50;;;1.05;;
56477;SDS011;42382;53.210;5.772;2022-09-09T13:09:14;4.93;;;0.60;;
56477;SDS011;42382;53.210;5.772;2022-09-09T13:11:45;3.92;;;0.80;;
56477;SDS011;42382;53.210;5.772;2022-09-09T13:14:26;3.88;;;0.50;;
56477;SDS011;42382;53.210;5.772;2022-09-09T13:17:00;3.47;;;0.47;;
56477;SDS011;42382;53.210;5.772;2022-09-09T13:19:35;8.35;;;0.70;;
56477;SDS011;42382;53.210;5.772;2022-09-09T13:22:12;4.93;;;0.90;;
56477;SDS011;42382;53.210;5.772;2022-09-09T13:24:44;6.10;;;0.73;;
56477;SDS011;42382;53.210;5.772;2022-09-09T13:27:29;4.70;;;0.60;;
56477;SDS011;42382;53.210;5.772;2022-09-09T13:30:00;6.32;;;0.82;;
56477;SDS011;42382;53.210;5.772;2022-09-09T13:32:26;2.97;;;0.50;;
56477;SDS011;42382;53.210;5.772;2022-09-09T13:34:53;2.67;;;0.30;;
56477;SDS011;42382;53.210;5.772;2022-09-09T13:37:37;3.42;;;0.32;;
56477;SDS011;42382;53.210;5.772;2022-09-09T13:40:06;4.80;;;0.47;;
56477;SDS011;42382;53.210;5.772;2022-09-09T13:42:41;3.70;;;0.60;;
56477;SDS011;42382;53.210;5.772;2022-09-09T13:45:17;3.03;;;0.35;;
56477;SDS011;42382;53.210;5.772;2022-09-09T13:47:47;4.85;;;0.60;;
56477;SDS011;42382;53.210;5.772;2022-09-09T13:50:21;4.30;;;0.45;;
56477;SDS011;42382;53.210;5.772;2022-09-09T13:52:52;4.25;;;0.50;;
56477;SDS011;42382;53.210;5.772;2022-09-09T13:55:19;2.15;;;0.40;;
56477;SDS011;42382;53.210;5.772;2022-09-09T13:57:57;4.13;;;0.30;;
56477;SDS011;42382;53.210;5.772;2022-09-09T14:00:23;4.28;;;0.68;;
56477;SDS011;42382;53.210;5.772;2022-09-09T14:02:50;2.63;;;0.40;;
56477;SDS011;42382;53.210;5.772;2022-09-09T14:05:17;4.90;;;0.70;;
56477;SDS011;42382;53.210;5.772;2022-09-09T14:07:43;4.60;;;0.95;;
56477;SDS011;42382;53.210;5.772;2022-09-09T14:10:10;3.58;;;0.80;;
56477;SDS011;42382;53.210;5.772;2022-09-09T14:12:36;3.55;;;1.10;;
56477;SDS011;42382;53.210;5.772;2022-09-09T14:15:03;4.80;;;0.70;;
56477;SDS011;42382;53.210;5.772;2022-09-09T14:17:29;4.85;;;0.95;;
56477;SDS011;42382;53.210;5.772;2022-09-09T14:19:56;2.55;;;0.38;;
56477;SDS011;42382;53.210;5.772;2022-09-09T14:22:22;3.58;;;0.65;;
56477;SDS011;42382;53.210;5.772;2022-09-09T14:24:48;3.42;;;0.50;;
56477;SDS011;42382;53.210;5.772;2022-09-09T14:27:14;2.03;;;0.20;;
56477;SDS011;42382;53.210;5.772;2022-09-09T14:29:40;2.88;;;0.40;;
56477;SDS011;42382;53.210;5.772;2022-09-09T14:32:05;3.00;;;0.30;;
56477;SDS011;42382;53.210;5.772;2022-09-09T14:34:31;2.85;;;0.30;;
56477;SDS011;42382;53.210;5.772;2022-09-09T14:36:57;3.30;;;0.50;;
56477;SDS011;42382;53.210;5.772;2022-09-09T14:39:23;2.63;;;0.30;;
56477;SDS011;42382;53.210;5.772;2022-09-09T14:41:49;4.05;;;0.50;;
56477;SDS011;42382;53.210;5.772;2022-09-09T14:44:14;2.55;;;0.30;;
56477;SDS011;42382;53.210;5.772;2022-09-09T14:46:41;1.15;;;0.20;;
56477;SDS011;42382;53.210;5.772;2022-09-09T14:49:08;4.57;;;0.50;;
56477;SDS011;42382;53.210;5.772;2022-09-09T14:51:35;2.72;;;0.55;;
56477;SDS011;42382;53.210;5.772;2022-09-09T14:54:01;2.97;;;0.35;;
56477;SDS011;42382;53.210;5.772;2022-09-09T14:56:28;1.75;;;0.22;;
56477;SDS011;42382;53.210;5.772;2022-09-09T14:58:56;3.60;;;0.45;;
56477;SDS011;42382;53.210;5.772;2022-09-09T15:01:24;3.95;;;0.55;;
56477;SDS011;42382;53.210;5.772;2022-09-09T15:03:58;2.42;;;0.52;;
56477;SDS011;42382;53.210;5.772;2022-09-09T15:06:26;1.48;;;0.45;;
56477;SDS011;42382;53.210;5.772;2022-09-09T15:08:54;4.10;;;0.82;;
56477;SDS011;42382;53.210;5.772;2022-09-09T15:11:23;1.80;;;0.60;;
56477;SDS011;42382;53.210;5.772;2022-09-09T15:13:51;3.58;;;0.80;;
56477;SDS011;42382;53.210;5.772;2022-09-09T15:16:18;1.98;;;0.43;;
56477;SDS011;42382;53.210;5.772;2022-09-09T15:18:45;4.70;;;0.75;;
56477;SDS011;42382;53.210;5.772;2022-09-09T15:21:18;2.40;;;0.50;;
56477;SDS011;42382;53.210;5.772;2022-09-09T15:23:46;1.98;;;0.40;;
56477;SDS011;42382;53.210;5.772;2022-09-09T15:26:12;7.03;;;1.20;;
56477;SDS011;42382;53.210;5.772;2022-09-09T15:28:39;5.57;;;1.08;;
56477;SDS011;42382;53.210;5.772;2022-09-09T15:33:48;3.08;;;0.93;;
56477;SDS011;42382;53.210;5.772;2022-09-09T15:36:19;2.75;;;0.77;;
56477;SDS011;42382;53.210;5.772;2022-09-09T15:38:49;3.65;;;1.42;;
56477;SDS011;42382;53.210;5.772;2022-09-09T15:41:15;6.45;;;2.00;;
56477;SDS011;42382;53.210;5.772;2022-09-09T15:43:43;6.40;;;1.65;;
56477;SDS011;42382;53.210;5.772;2022-09-09T15:46:21;4.85;;;1.88;;
56477;SDS011;42382;53.210;5.772;2022-09-09T15:48:51;5.65;;;1.90;;
56477;SDS011;42382;53.210;5.772;2022-09-09T15:51:17;5.05;;;1.50;;
56477;SDS011;42382;53.210;5.772;2022-09-09T15:53:43;5.82;;;1.75;;
56477;SDS011;42382;53.210;5.772;2022-09-09T15:56:10;4.22;;;1.65;;
56477;SDS011;42382;53.210;5.772;2022-09-09T15:58:35;5.78;;;1.70;;
56477;SDS011;42382;53.210;5.772;2022-09-09T16:01:10;4.28;;;1.60;;
56477;SDS011;42382;53.210;5.772;2022-09-09T16:03:40;6.95;;;1.70;;
56477;SDS011;42382;53.210;5.772;2022-09-09T16:06:07;2.78;;;1.40;;
56477;SDS011;42382;53.210;5.772;2022-09-09T16:08:34;4.28;;;1.60;;
56477;SDS011;42382;53.210;5.772;2022-09-09T16:11:08;3.45;;;1.50;;
56477;SDS011;42382;53.210;5.772;2022-09-09T16:13:42;4.80;;;1.88;;
56477;SDS011;42382;53.210;5.772;2022-09-09T16:16:12;5.07;;;1.55;;
56477;SDS011;42382;53.210;5.772;2022-09-09T16:18:39;7.20;;;2.03;;
56477;SDS011;42382;53.210;5.772;2022-09-09T16:21:14;4.30;;;1.60;;
56477;SDS011;42382;53.210;5.772;2022-09-09T16:23:41;5.35;;;1.80;;
56477;SDS011;42382;53.210;5.772;2022-09-09T16:26:08;4.78;;;2.03;;
56477;SDS011;42382;53.210;5.772;2022-09-09T16:28:35;5.20;;;1.67;;
56477;SDS011;42382;53.210;5.772;2022-09-09T16:31:04;6.05;;;1.60;;
56477;SDS011;42382;53.210;5.772;2022-09-09T16:33:31;4.30;;;1.48;;
56477;SDS011;42382;53.210;5.772;2022-09-09T16:35:56;6.28;;;1.63;;
56477;SDS011;42382;53.210;5.772;2022-09-09T16:38:22;5.53;;;1.75;;
56477;SDS011;42382;53.210;5.772;2022-09-09T16:40:47;4.72;;;1.30;;
56477;SDS011;42382;53.210;5.772;2022-09-09T16:43:14;3.67;;;0.98;;
56477;SDS011;42382;53.210;5.772;2022-09-09T16:45:44;1.95;;;0.30;;
56477;SDS011;42382;53.210;5.772;2022-09-09T16:48:10;1.10;;;0.20;;
56477;SDS011;42382;53.210;5.772;2022-09-09T16:50:36;2.00;;;0.55;;
56477;SDS011;42382;53.210;5.772;2022-09-09T16:53:04;2.17;;;0.30;;
56477;SDS011;42382;53.210;5.772;2022-09-09T16:55:37;1.58;;;0.20;;
56477;SDS011;42382;53.210;5.772;2022-09-09T16:58:06;0.50;;;0.15;;
56477;SDS011;42382;53.210;5.772;2022-09-09T17:00:33;1.65;;;0.30;;
56477;SDS011;42382;53.210;5.772;2022-09-09T17:02:59;1.23;;;0.30;;
56477;SDS011;42382;53.210;5.772;2022-09-09T17:05:25;2.67;;;0.30;;
56477;SDS011;42382;53.210;5.772;2022-09-09T17:07:50;3.03;;;0.60;;
56477;SDS011;42382;53.210;5.772;2022-09-09T17:10:16;7.07;;;1.20;;
56477;SDS011;42382;53.210;5.772;2022-09-09T17:12:42;3.95;;;0.80;;
56477;SDS011;42382;53.210;5.772;2022-09-09T17:15:08;1.05;;;0.30;;
56477;SDS011;42382;53.210;5.772;2022-09-09T17:17:35;1.67;;;0.30;;
56477;SDS011;42382;53.210;5.772;2022-09-09T17:20:00;3.85;;;0.30;;
56477;SDS011;42382;53.210;5.772;2022-09-09T17:22:27;2.65;;;0.40;;
56477;SDS011;42382;53.210;5.772;2022-09-09T17:24:53;1.95;;;0.30;;
56477;SDS011;42382;53.210;5.772;2022-09-09T17:27:20;1.30;;;0.50;;
56477;SDS011;42382;53.210;5.772;2022-09-09T17:29:45;1.30;;;0.38;;
56477;SDS011;42382;53.210;5.772;2022-09-09T17:32:11;2.75;;;0.77;;
56477;SDS011;42382;53.210;5.772;2022-09-09T17:34:37;3.13;;;1.05;;
56477;SDS011;42382;53.210;5.772;2022-09-09T17:37:03;4.45;;;0.90;;